sensor_id;sensor_type;location;lat;lon;timestamp;pressure;altitude;pressure_sealevel;temperature;humidity
9717;BME280;4897;43.570;27.832;2023-02-01T00:02:03;98968.53;;;0.78;100.00
9717;BME280;4897;43.570;27.832;2023-02-01T00:04:30;98969.00;;;0.87;100.00
9717;BME280;4897;43.570;27.832;2023-02-01T00:06:57;98935.56;;;0.53;100.00
9717;BME280;4897;43.570;27.832;2023-02-01T00:09:24;98980.91;;;0.76;100.00
9717;BME280;4897;43.570;27.832;2023-02-01T00:11:51;98979.19;;;0.75;100.00
9717;BME280;4897;43.570;27.832;2023-02-01T00:14:18;98986.31;;;0.73;100.00
9717;BME280;4897;43.570;27.832;2023-02-01T00:16:44;98963.09;;;0.64;100.00
9717;BME280;4897;43.570;27.832;2023-02-01T00:19:14;98970.81;;;0.67;100.00
9717;BME280;4897;43.570;27.832;2023-02-01T00:21:42;98941.50;;;0.39;100.00
9717;BME280;4897;43.570;27.832;2023-02-01T00:24:11;98976.72;;;0.72;100.00
9717;BME280;4897;43.570;27.832;2023-02-01T00:26:39;98974.09;;;0.72;100.00
9717;BME280;4897;43.570;27.832;2023-02-01T00:29:09;98982.88;;;0.71;100.00
9717;BME280;4897;43.570;27.832;2023-02-01T00:31:37;98970.81;;;0.67;100.00
9717;BME280;4897;43.570;27.832;2023-02-01T00:34:04;98973.31;;;0.70;100.00
9717;BME280;4897;43.570;27.832;2023-02-01T00:36:33;98974.38;;;0.66;100.00
9717;BME280;4897;43.570;27.832;2023-02-01T00:39:00;98959.94;;;0.56;100.00
9717;BME280;4897;43.570;27.832;2023-02-01T00:41:27;98945.22;;;0.52;100.00
9717;BME280;4897;43.570;27.832;2023-02-01T00:43:53;98975.22;;;0.67;100.00
9717;BME280;4897;43.570;27.832;2023-02-01T00:46:20;98970.97;;;0.64;100.00
9717;BME280;4897;43.570;27.832;2023-02-01T00:48:48;98970.88;;;0.66;100.00
9717;BME280;4897;43.570;27.832;2023-02-01T00:51:16;98974.38;;;0.66;100.00
9717;BME280;4897;43.570;27.832;2023-02-01T00:53:45;98963.13;;;0.63;100.00
9717;BME280;4897;43.570;27.832;2023-02-01T00:56:13;98969.25;;;0.63;100.00
9717;BME280;4897;43.570;27.832;2023-02-01T00:58:40;98946.31;;;0.48;100.00
9717;BME280;4897;43.570;27.832;2023-02-01T01:01:08;98960.03;;;0.55;100.00
9717;BME280;4897;43.570;27.832;2023-02-01T01:03:38;98970.34;;;0.59;100.00
9717;BME280;4897;43.570;27.832;2023-02-01T01:06:07;98947.84;;;0.52;100.00
9717;BME280;4897;43.570;27.832;2023-02-01T01:08:35;98966.91;;;0.57;100.00
9717;BME280;4897;43.570;27.832;2023-02-01T01:11:06;98962.72;;;0.53;100.00
9717;BME280;4897;43.570;27.832;2023-02-01T01:13:33;98968.63;;;0.58;100.00
9717;BME280;4897;43.570;27.832;2023-02-01T01:16:00;98979.88;;;0.62;100.00
9717;BME280;4897;43.570;27.832;2023-02-01T01:18:29;98957.31;;;0.56;100.00
9717;BME280;4897;43.570;27.832;2023-02-01T01:20:56;98971.28;;;0.58;100.00
9717;BME280;4897;43.570;27.832;2023-02-01T01:23:23;98971.88;;;0.63;100.00
9717;BME280;4897;43.570;27.832;2023-02-01T01:25:50;98970.19;;;0.62;100.00
9717;BME280;4897;43.570;27.832;2023-02-01T01:28:19;98969.81;;;0.70;100.00
9717;BME280;4897;43.570;27.832;2023-02-01T01:30:46;98967.47;;;0.64;100.00
9717;BME280;4897;43.570;27.832;2023-02-01T01:33:13;98968.09;;;0.69;100.00
9717;BME280;4897;43.570;27.832;2023-02-01T01:35:40;98965.13;;;0.76;100.00
9717;BME280;4897;43.570;27.832;2023-02-01T01:38:08;98959.69;;;0.79;100.00
9717;BME280;4897;43.570;27.832;2023-02-01T01:40:36;98968.97;;;0.69;100.00
9717;BME280;4897;43.570;27.832;2023-02-01T01:43:03;98924.91;;;0.56;100.00
9717;BME280;4897;43.570;27.832;2023-02-01T01:45:33;98961.25;;;0.83;100.00
9717;BME280;4897;43.570;27.832;2023-02-01T01:48:03;98913.66;;;0.52;100.00
9717;BME280;4897;43.570;27.832;2023-02-01T01:50:33;98965.47;;;0.88;100.00
9717;BME280;4897;43.570;27.832;2023-02-01T01:53:04;98969.13;;;0.83;100.00
9717;BME280;4897;43.570;27.832;2023-02-01T01:55:36;98967.44;;;0.82;100.00
9717;BME280;4897;43.570;27.832;2023-02-01T01:58:06;98950.41;;;0.72;100.00
9717;BME280;4897;43.570;27.832;2023-02-01T02:00:37;98967.91;;;0.91;100.00
9717;BME280;4897;43.570;27.832;2023-02-01T02:03:14;98941.56;;;0.73;100.00
9717;BME280;4897;43.570;27.832;2023-02-01T02:05:42;98961.97;;;0.87;100.00
9717;BME280;4897;43.570;27.832;2023-02-01T02:08:11;98958.25;;;0.91;100.00
9717;BME280;4897;43.570;27.832;2023-02-01T02:10:38;98957.63;;;0.86;100.00
9717;BME280;4897;43.570;27.832;2023-02-01T02:13:23;98960.81;;;0.93;100.00
9717;BME280;4897;43.570;27.832;2023-02-01T02:16:00;98961.66;;;0.93;100.00
9717;BME280;4897;43.570;27.832;2023-02-01T02:18:36;98965.97;;;0.94;100.00
9717;BME280;4897;43.570;27.832;2023-02-01T02:21:12;98962.66;;;0.91;100.00
9717;BME280;4897;43.570;27.832;2023-02-01T02:24:07;98965.28;;;0.91;100.00
9717;BME280;4897;43.570;27.832;2023-02-01T02:26:46;98954.13;;;0.86;100.00
9717;BME280;4897;43.570;27.832;2023-02-01T02:29:37;98955.97;;;0.83;100.00
9717;BME280;4897;43.570;27.832;2023-02-01T02:35:18;98953.59;;;0.79;100.00
9717;BME280;4897;43.570;27.832;2023-02-01T02:37:55;98935.41;;;0.74;100.00
9717;BME280;4897;43.570;27.832;2023-02-01T02:40:32;98755.13;;;-0.38;100.00
9717;BME280;4897;43.570;27.832;2023-02-01T02:43:07;98936.00;;;0.62;100.00
9717;BME280;4897;43.570;27.832;2023-02-01T02:46:00;98960.47;;;0.81;100.00
9717;BME280;4897;43.570;27.832;2023-02-01T02:48:49;98945.91;;;0.74;100.00
9717;BME280;4897;43.570;27.832;2023-02-01T02:51:22;98968.81;;;0.72;100.00
9717;BME280;4897;43.570;27.832;2023-02-01T02:54:12;98968.81;;;0.72;100.00
9717;BME280;4897;43.570;27.832;2023-02-01T02:56:58;98948.81;;;0.51;100.00
9717;BME280;4897;43.570;27.832;2023-02-01T02:59:45;98955.69;;;0.54;100.00
9717;BME280;4897;43.570;27.832;2023-02-01T03:02:32;98946.19;;;0.51;100.00
9717;BME280;4897;43.570;27.832;2023-02-01T03:05:21;98966.22;;;0.54;100.00
9717;BME280;4897;43.570;27.832;2023-02-01T03:08:01;98957.88;;;0.63;100.00
9717;BME280;4897;43.570;27.832;2023-02-01T03:10:37;98967.47;;;0.64;100.00
9717;BME280;4897;43.570;27.832;2023-02-01T03:13:11;98966.78;;;0.60;100.00
9717;BME280;4897;43.570;27.832;2023-02-01T03:15:43;98968.56;;;0.60;100.00
9717;BME280;4897;43.570;27.832;2023-02-01T03:18:15;98974.69;;;0.60;100.00
9717;BME280;4897;43.570;27.832;2023-02-01T03:20:46;98967.56;;;0.62;100.00
9717;BME280;4897;43.570;27.832;2023-02-01T03:23:18;98970.47;;;0.56;100.00
9717;BME280;4897;43.570;27.832;2023-02-01T03:25:48;98960.03;;;0.36;100.00
9717;BME280;4897;43.570;27.832;2023-02-01T03:28:17;98970.56;;;0.36;100.00
9717;BME280;4897;43.570;27.832;2023-02-01T03:30:48;98973.25;;;0.53;100.00
9717;BME280;4897;43.570;27.832;2023-02-01T03:33:18;98973.09;;;0.56;100.00
9717;BME280;4897;43.570;27.832;2023-02-01T03:35:53;98975.66;;;0.58;100.00
9717;BME280;4897;43.570;27.832;2023-02-01T03:38:25;98959.31;;;0.51;100.00
9717;BME280;4897;43.570;27.832;2023-02-01T03:41:00;98980.78;;;0.61;100.00
9717;BME280;4897;43.570;27.832;2023-02-01T03:43:34;98984.75;;;0.69;100.00
9717;BME280;4897;43.570;27.832;2023-02-01T03:46:08;98983.06;;;0.68;100.00
9717;BME280;4897;43.570;27.832;2023-02-01T03:48:37;98986.31;;;0.73;100.00
9717;BME280;4897;43.570;27.832;2023-02-01T03:51:06;98944.75;;;0.44;100.00
9717;BME280;4897;43.570;27.832;2023-02-01T03:53:36;98985.69;;;0.68;100.00
9717;BME280;4897;43.570;27.832;2023-02-01T03:56:04;98981.84;;;0.57;100.00
9717;BME280;4897;43.570;27.832;2023-02-01T03:58:32;98976.78;;;0.52;100.00
9717;BME280;4897;43.570;27.832;2023-02-01T04:01:00;98982.84;;;0.54;100.00
9717;BME280;4897;43.570;27.832;2023-02-01T04:03:27;98915.84;;;0.07;100.00
9717;BME280;4897;43.570;27.832;2023-02-01T04:05:54;98981.22;;;0.52;100.00
9717;BME280;4897;43.570;27.832;2023-02-01T04:08:23;98982.34;;;0.46;100.00
9717;BME280;4897;43.570;27.832;2023-02-01T04:10:52;98988.34;;;0.31;100.00
9717;BME280;4897;43.570;27.832;2023-02-01T04:13:18;98989.75;;;0.20;100.00
9717;BME280;4897;43.570;27.832;2023-02-01T04:15:46;99008.06;;;0.21;100.00
9717;BME280;4897;43.570;27.832;2023-02-01T04:18:15;98994.00;;;0.04;100.00
9717;BME280;4897;43.570;27.832;2023-02-01T04:20:42;98987.97;;;0.02;100.00
9717;BME280;4897;43.570;27.832;2023-02-01T04:23:10;98999.34;;;0.02;100.00
9717;BME280;4897;43.570;27.832;2023-02-01T04:25:37;98991.47;;;0.02;100.00
9717;BME280;4897;43.570;27.832;2023-02-01T04:28:05;98998.28;;;0.06;100.00
9717;BME280;4897;43.570;27.832;2023-02-01T04:30:32;99000.31;;;-0.01;100.00
9717;BME280;4897;43.570;27.832;2023-02-01T04:32:59;99001.78;;;-0.14;100.00
9717;BME280;4897;43.570;27.832;2023-02-01T04:35:28;99009.19;;;-0.03;100.00
9717;BME280;4897;43.570;27.832;2023-02-01T04:37:55;99019.81;;;-0.06;100.00
9717;BME280;4897;43.570;27.832;2023-02-01T04:40:22;99012.28;;;-0.14;100.00
9717;BME280;4897;43.570;27.832;2023-02-01T04:42:49;98963.03;;;-0.67;100.00
9717;BME280;4897;43.570;27.832;2023-02-01T04:45:17;99026.28;;;-0.13;100.00
9717;BME280;4897;43.570;27.832;2023-02-01T04:47:44;99025.63;;;-0.18;100.00
9717;BME280;4897;43.570;27.832;2023-02-01T04:50:13;99024.13;;;-0.24;100.00
9717;BME280;4897;43.570;27.832;2023-02-01T04:52:39;99017.75;;;-0.18;100.00
9717;BME280;4897;43.570;27.832;2023-02-01T04:55:07;98889.25;;;-1.02;100.00
9717;BME280;4897;43.570;27.832;2023-02-01T04:57:37;99025.81;;;-0.23;100.00
9717;BME280;4897;43.570;27.832;2023-02-01T05:00:06;99008.94;;;-0.37;100.00
9717;BME280;4897;43.570;27.832;2023-02-01T05:02:35;99017.50;;;-0.32;100.00
9717;BME280;4897;43.570;27.832;2023-02-01T05:05:02;99018.94;;;-0.45;100.00
9717;BME280;4897;43.570;27.832;2023-02-01T05:07:29;99038.78;;;-0.38;100.00
9717;BME280;4897;43.570;27.832;2023-02-01T05:09:56;99008.44;;;-0.45;100.00
9717;BME280;4897;43.570;27.832;2023-02-01T05:12:23;99028.28;;;-0.38;100.00
9717;BME280;4897;43.570;27.832;2023-02-01T05:15:08;99038.91;;;-0.41;100.00
9717;BME280;4897;43.570;27.832;2023-02-01T05:17:36;99044.34;;;-0.46;100.00
9717;BME280;4897;43.570;27.832;2023-02-01T05:20:06;99055.09;;;-0.52;100.00
9717;BME280;4897;43.570;27.832;2023-02-01T05:22:33;99025.78;;;-0.61;100.00
9717;BME280;4897;43.570;27.832;2023-02-01T05:25:00;99037.41;;;-0.47;100.00
9717;BME280;4897;43.570;27.832;2023-02-01T05:27:28;99035.91;;;-0.52;100.00
9717;BME280;4897;43.570;27.832;2023-02-01T05:29:55;99030.66;;;-0.52;100.00
9717;BME280;4897;43.570;27.832;2023-02-01T05:32:22;99051.56;;;-0.31;100.00
9717;BME280;4897;43.570;27.832;2023-02-01T05:34:50;99047.19;;;-0.30;100.00
9717;BME280;4897;43.570;27.832;2023-02-01T05:37:17;99040.47;;;-0.37;100.00
9717;BME280;4897;43.570;27.832;2023-02-01T05:39:46;99042.47;;;-0.42;100.00
9717;BME280;4897;43.570;27.832;2023-02-01T05:42:13;99053.75;;;-0.40;100.00
9717;BME280;4897;43.570;27.832;2023-02-01T05:44:40;99050.19;;;-0.39;100.00
9717;BME280;4897;43.570;27.832;2023-02-01T05:47:07;99037.06;;;-0.39;100.00
9717;BME280;4897;43.570;27.832;2023-02-01T05:49:34;99023.13;;;-0.41;100.00
9717;BME280;4897;43.570;27.832;2023-02-01T05:52:03;99041.59;;;-0.23;100.00
9717;BME280;4897;43.570;27.832;2023-02-01T05:54:30;99052.84;;;-0.19;100.00
9717;BME280;4897;43.570;27.832;2023-02-01T05:56:57;99052.63;;;-0.15;100.00
9717;BME280;4897;43.570;27.832;2023-02-01T05:59:24;99054.00;;;-0.06;100.00
9717;BME280;4897;43.570;27.832;2023-02-01T06:01:50;99049.00;;;0.08;100.00
9717;BME280;4897;43.570;27.832;2023-02-01T06:04:17;99055.56;;;0.18;100.00
9717;BME280;4897;43.570;27.832;2023-02-01T06:06:44;98906.19;;;-0.68;100.00
9717;BME280;4897;43.570;27.832;2023-02-01T06:09:13;99054.19;;;0.10;100.00
9717;BME280;4897;43.570;27.832;2023-02-01T06:11:39;99052.13;;;0.16;100.00
9717;BME280;4897;43.570;27.832;2023-02-01T06:14:06;99048.72;;;0.14;100.00
9717;BME280;4897;43.570;27.832;2023-02-01T06:16:34;99058.31;;;0.15;100.00
9717;BME280;4897;43.570;27.832;2023-02-01T06:19:00;99052.25;;;0.13;100.00
9717;BME280;4897;43.570;27.832;2023-02-01T06:21:27;99048.72;;;0.14;100.00
9717;BME280;4897;43.570;27.832;2023-02-01T06:23:54;99058.38;;;0.14;100.00
9717;BME280;4897;43.570;27.832;2023-02-01T06:26:24;99051.81;;;0.04;100.00
9717;BME280;4897;43.570;27.832;2023-02-01T06:28:52;99035.84;;;0.08;100.00
9717;BME280;4897;43.570;27.832;2023-02-01T06:31:18;99041.38;;;0.02;100.00
9717;BME280;4897;43.570;27.832;2023-02-01T06:33:45;99074.84;;;0.17;100.00
9717;BME280;4897;43.570;27.832;2023-02-01T06:36:13;99064.81;;;0.27;100.00
9717;BME280;4897;43.570;27.832;2023-02-01T06:38:44;99047.66;;;0.18;100.00
9717;BME280;4897;43.570;27.832;2023-02-01T06:41:11;99063.88;;;0.28;100.00
9717;BME280;4897;43.570;27.832;2023-02-01T06:43:39;99063.97;;;0.45;100.00
9717;BME280;4897;43.570;27.832;2023-02-01T06:46:08;99078.88;;;0.44;100.00
9717;BME280;4897;43.570;27.832;2023-02-01T06:48:36;99071.84;;;0.45;100.00
9717;BME280;4897;43.570;27.832;2023-02-01T06:51:03;99067.78;;;0.38;100.00
9717;BME280;4897;43.570;27.832;2023-02-01T06:53:32;99070.78;;;0.30;100.00
9717;BME280;4897;43.570;27.832;2023-02-01T06:56:01;99064.94;;;0.42;100.00
9717;BME280;4897;43.570;27.832;2023-02-01T06:58:29;99066.81;;;0.59;100.00
9717;BME280;4897;43.570;27.832;2023-02-01T07:00:58;99068.53;;;0.78;100.00
9717;BME280;4897;43.570;27.832;2023-02-01T07:03:25;99067.94;;;0.91;100.00
9717;BME280;4897;43.570;27.832;2023-02-01T07:05:55;99059.91;;;0.94;100.00
9717;BME280;4897;43.570;27.832;2023-02-01T07:08:23;99049.56;;;1.08;100.00
9717;BME280;4897;43.570;27.832;2023-02-01T07:10:50;99063.06;;;1.19;100.00
9717;BME280;4897;43.570;27.832;2023-02-01T07:13:17;99048.47;;;1.12;100.00
9717;BME280;4897;43.570;27.832;2023-02-01T07:15:44;99073.00;;;1.31;100.00
9717;BME280;4897;43.570;27.832;2023-02-01T07:18:14;99074.25;;;1.41;100.00
9717;BME280;4897;43.570;27.832;2023-02-01T07:20:41;99067.25;;;1.40;100.00
9717;BME280;4897;43.570;27.832;2023-02-01T07:23:10;99069.63;;;1.46;100.00
9717;BME280;4897;43.570;27.832;2023-02-01T07:25:37;99072.50;;;1.58;100.00
9717;BME280;4897;43.570;27.832;2023-02-01T07:28:04;99076.69;;;1.63;100.00
9717;BME280;4897;43.570;27.832;2023-02-01T07:30:31;99082.47;;;1.69;100.00
9717;BME280;4897;43.570;27.832;2023-02-01T07:33:13;99084.19;;;1.87;100.00
9717;BME280;4897;43.570;27.832;2023-02-01T07:35:40;99080.63;;;1.88;100.00
9717;BME280;4897;43.570;27.832;2023-02-01T07:38:07;99075.03;;;1.94;100.00
9717;BME280;4897;43.570;27.832;2023-02-01T07:40:34;99095.66;;;2.03;100.00
9717;BME280;4897;43.570;27.832;2023-02-01T07:43:03;99090.06;;;2.09;100.00
9717;BME280;4897;43.570;27.832;2023-02-01T07:45:31;99081.25;;;2.10;100.00
9717;BME280;4897;43.570;27.832;2023-02-01T07:47:58;99064.47;;;2.11;100.00
9717;BME280;4897;43.570;27.832;2023-02-01T07:50:28;99092.69;;;2.26;100.00
9717;BME280;4897;43.570;27.832;2023-02-01T07:52:58;99073.22;;;2.12;100.00
9717;BME280;4897;43.570;27.832;2023-02-01T07:55:25;99075.09;;;2.10;100.00
9717;BME280;4897;43.570;27.832;2023-02-01T07:57:52;99080.06;;;2.16;100.00
9717;BME280;4897;43.570;27.832;2023-02-01T08:00:19;99059.28;;;2.10;100.00
9717;BME280;4897;43.570;27.832;2023-02-01T08:03:04;99017.34;;;1.88;100.00
9717;BME280;4897;43.570;27.832;2023-02-01T08:05:32;99074.31;;;2.25;100.00
9717;BME280;4897;43.570;27.832;2023-02-01T08:07:59;99072.66;;;2.39;100.00
9717;BME280;4897;43.570;27.832;2023-02-01T08:10:26;99071.13;;;2.51;100.00
9717;BME280;4897;43.570;27.832;2023-02-01T08:12:57;99070.06;;;2.38;100.00
9717;BME280;4897;43.570;27.832;2023-02-01T08:15:25;99064.72;;;2.39;100.00
9717;BME280;4897;43.570;27.832;2023-02-01T08:17:52;99084.00;;;2.24;100.00
9717;BME280;4897;43.570;27.832;2023-02-01T08:20:20;99084.78;;;2.26;100.00
9717;BME280;4897;43.570;27.832;2023-02-01T08:22:49;99074.88;;;2.14;100.00
9717;BME280;4897;43.570;27.832;2023-02-01T08:25:17;99087.28;;;2.12;100.00
9717;BME280;4897;43.570;27.832;2023-02-01T08:27:44;99096.78;;;2.32;100.00
9717;BME280;4897;43.570;27.832;2023-02-01T08:30:12;99091.50;;;2.32;100.00
9717;BME280;4897;43.570;27.832;2023-02-01T08:32:39;99086.75;;;2.38;100.00
9717;BME280;4897;43.570;27.832;2023-02-01T08:35:06;99024.00;;;2.12;100.00
9717;BME280;4897;43.570;27.832;2023-02-01T08:37:33;99091.56;;;2.48;100.00
9717;BME280;4897;43.570;27.832;2023-02-01T08:40:02;99080.34;;;2.60;100.00
9717;BME280;4897;43.570;27.832;2023-02-01T08:42:31;99078.50;;;2.77;100.00
9717;BME280;4897;43.570;27.832;2023-02-01T08:45:15;99077.06;;;2.87;100.00
9717;BME280;4897;43.570;27.832;2023-02-01T08:47:42;99076.09;;;2.88;100.00
9717;BME280;4897;43.570;27.832;2023-02-01T08:50:10;99065.72;;;2.85;100.00
9717;BME280;4897;43.570;27.832;2023-02-01T08:52:37;99084.63;;;2.93;100.00
9717;BME280;4897;43.570;27.832;2023-02-01T08:55:06;99096.47;;;3.02;100.00
9717;BME280;4897;43.570;27.832;2023-02-01T08:57:35;99059.84;;;2.96;100.00
9717;BME280;4897;43.570;27.832;2023-02-01T09:00:03;99071.50;;;3.23;100.00
9717;BME280;4897;43.570;27.832;2023-02-01T09:02:33;99093.53;;;3.69;100.00
9717;BME280;4897;43.570;27.832;2023-02-01T09:05:00;99088.44;;;3.50;100.00
9717;BME280;4897;43.570;27.832;2023-02-01T09:07:27;99083.28;;;3.92;100.00
9717;BME280;4897;43.570;27.832;2023-02-01T09:09:54;99087.50;;;4.95;100.00
9717;BME280;4897;43.570;27.832;2023-02-01T09:12:23;99070.66;;;6.78;100.00
9717;BME280;4897;43.570;27.832;2023-02-01T09:14:50;99061.63;;;6.68;100.00
9717;BME280;4897;43.570;27.832;2023-02-01T09:17:16;99061.59;;;7.77;100.00
9717;BME280;4897;43.570;27.832;2023-02-01T09:19:43;99059.16;;;7.74;100.00
9717;BME280;4897;43.570;27.832;2023-02-01T09:22:10;99052.44;;;7.92;100.00
9717;BME280;4897;43.570;27.832;2023-02-01T09:24:37;99056.31;;;7.99;100.00
9717;BME280;4897;43.570;27.832;2023-02-01T09:27:04;99046.47;;;8.23;100.00
9717;BME280;4897;43.570;27.832;2023-02-01T09:29:32;99068.22;;;6.75;100.00
9717;BME280;4897;43.570;27.832;2023-02-01T09:31:59;99063.34;;;6.69;100.00
9717;BME280;4897;43.570;27.832;2023-02-01T09:34:26;99051.91;;;7.76;100.00
9717;BME280;4897;43.570;27.832;2023-02-01T09:36:53;99044.34;;;6.99;100.00
9717;BME280;4897;43.570;27.832;2023-02-01T09:39:20;99044.63;;;6.58;100.00
9717;BME280;4897;43.570;27.832;2023-02-01T09:41:54;99034.84;;;6.71;100.00
9717;BME280;4897;43.570;27.832;2023-02-01T09:44:42;99037.31;;;6.36;100.00
9717;BME280;4897;43.570;27.832;2023-02-01T09:47:16;98986.31;;;5.81;100.00
9717;BME280;4897;43.570;27.832;2023-02-01T09:49:51;99030.00;;;6.27;100.00
9717;BME280;4897;43.570;27.832;2023-02-01T09:52:25;99027.13;;;6.43;100.00
9717;BME280;4897;43.570;27.832;2023-02-01T09:54:56;99010.63;;;7.70;100.00
9717;BME280;4897;43.570;27.832;2023-02-01T09:57:40;99010.19;;;8.66;100.00
9717;BME280;4897;43.570;27.832;2023-02-01T10:00:17;98999.34;;;9.12;100.00
9717;BME280;4897;43.570;27.832;2023-02-01T10:02:47;98999.78;;;9.28;100.00
9717;BME280;4897;43.570;27.832;2023-02-01T10:05:16;98982.69;;;9.62;100.00
9717;BME280;4897;43.570;27.832;2023-02-01T10:07:49;98987.59;;;9.78;99.64
9717;BME280;4897;43.570;27.832;2023-02-01T10:10:25;98975.00;;;9.06;100.00
9717;BME280;4897;43.570;27.832;2023-02-01T10:13:19;98977.88;;;9.56;100.00
9717;BME280;4897;43.570;27.832;2023-02-01T10:16:00;98964.63;;;8.92;100.00
9717;BME280;4897;43.570;27.832;2023-02-01T10:18:51;98960.06;;;8.60;100.00
9717;BME280;4897;43.570;27.832;2023-02-01T10:21:36;98968.38;;;10.56;96.16
9717;BME280;4897;43.570;27.832;2023-02-01T10:24:32;98961.69;;;10.71;80.21
9717;BME280;4897;43.570;27.832;2023-02-01T10:27:07;98967.69;;;9.19;96.08
9717;BME280;4897;43.570;27.832;2023-02-01T10:29:39;98968.94;;;10.08;90.29
9717;BME280;4897;43.570;27.832;2023-02-01T10:32:14;98945.13;;;10.16;89.35
9717;BME280;4897;43.570;27.832;2023-02-01T10:34:43;98956.47;;;9.88;92.40
9717;BME280;4897;43.570;27.832;2023-02-01T10:37:20;98952.16;;;10.48;89.61
9717;BME280;4897;43.570;27.832;2023-02-01T10:39:52;98908.78;;;10.74;83.45
9717;BME280;4897;43.570;27.832;2023-02-01T10:42:26;98945.50;;;11.41;72.65
9717;BME280;4897;43.570;27.832;2023-02-01T10:44:54;98828.09;;;11.46;65.33
9717;BME280;4897;43.570;27.832;2023-02-01T10:47:24;98926.34;;;8.81;94.02
9717;BME280;4897;43.570;27.832;2023-02-01T10:49:55;98957.03;;;8.43;100.00
9717;BME280;4897;43.570;27.832;2023-02-01T10:52:35;98945.38;;;9.72;99.08
9717;BME280;4897;43.570;27.832;2023-02-01T10:58:15;98944.50;;;8.88;100.00
9717;BME280;4897;43.570;27.832;2023-02-01T11:00:46;98938.13;;;9.22;88.93
9717;BME280;4897;43.570;27.832;2023-02-01T11:03:36;98943.47;;;9.42;89.43
9717;BME280;4897;43.570;27.832;2023-02-01T11:06:11;98955.66;;;9.24;80.52
9717;BME280;4897;43.570;27.832;2023-02-01T11:08:46;98949.63;;;8.57;83.77
9717;BME280;4897;43.570;27.832;2023-02-01T11:11:14;98948.38;;;7.95;94.58
9717;BME280;4897;43.570;27.832;2023-02-01T11:13:41;98918.41;;;8.15;100.00
9717;BME280;4897;43.570;27.832;2023-02-01T11:16:12;98940.69;;;9.01;91.18
9717;BME280;4897;43.570;27.832;2023-02-01T11:18:41;98911.69;;;10.22;77.74
9717;BME280;4897;43.570;27.832;2023-02-01T11:21:09;98936.00;;;9.57;76.81
9717;BME280;4897;43.570;27.832;2023-02-01T11:23:41;98927.72;;;8.54;83.52
9717;BME280;4897;43.570;27.832;2023-02-01T11:26:13;98922.66;;;9.05;86.09
9717;BME280;4897;43.570;27.832;2023-02-01T11:28:48;98905.13;;;10.05;72.67
9717;BME280;4897;43.570;27.832;2023-02-01T11:31:18;98925.91;;;10.62;66.15
9717;BME280;4897;43.570;27.832;2023-02-01T11:33:50;98889.94;;;10.85;64.23
9717;BME280;4897;43.570;27.832;2023-02-01T11:36:23;98898.44;;;11.38;62.87
9717;BME280;4897;43.570;27.832;2023-02-01T11:38:54;98929.66;;;10.90;60.64
9717;BME280;4897;43.570;27.832;2023-02-01T11:41:34;98850.97;;;10.24;60.79
9717;BME280;4897;43.570;27.832;2023-02-01T11:44:22;98923.13;;;10.64;62.12
9717;BME280;4897;43.570;27.832;2023-02-01T11:46:49;98914.38;;;10.22;63.33
9717;BME280;4897;43.570;27.832;2023-02-01T11:49:21;98906.94;;;10.75;63.39
9717;BME280;4897;43.570;27.832;2023-02-01T11:52:07;98913.84;;;10.87;61.62
9717;BME280;4897;43.570;27.832;2023-02-01T11:54:51;98894.47;;;11.71;58.11
9717;BME280;4897;43.570;27.832;2023-02-01T11:57:34;98901.94;;;10.91;58.88
9717;BME280;4897;43.570;27.832;2023-02-01T12:00:24;98905.13;;;10.75;59.73
9717;BME280;4897;43.570;27.832;2023-02-01T12:05:55;98900.41;;;9.68;62.68
9717;BME280;4897;43.570;27.832;2023-02-01T12:11:28;98917.88;;;10.22;60.24
9717;BME280;4897;43.570;27.832;2023-02-01T12:14:05;98883.13;;;10.22;61.55
9717;BME280;4897;43.570;27.832;2023-02-01T12:16:40;98876.06;;;10.52;62.37
9717;BME280;4897;43.570;27.832;2023-02-01T12:19:21;98901.44;;;10.27;63.78
9717;BME280;4897;43.570;27.832;2023-02-01T12:21:59;98891.19;;;10.72;61.93
9717;BME280;4897;43.570;27.832;2023-02-01T12:27:46;98907.91;;;10.04;69.18
9717;BME280;4897;43.570;27.832;2023-02-01T12:30:37;98919.00;;;10.20;71.21
9717;BME280;4897;43.570;27.832;2023-02-01T12:33:16;98899.69;;;9.45;76.73
9717;BME280;4897;43.570;27.832;2023-02-01T12:35:59;98898.44;;;8.97;86.30
9717;BME280;4897;43.570;27.832;2023-02-01T12:38:43;98868.78;;;9.11;83.18
9717;BME280;4897;43.570;27.832;2023-02-01T12:41:33;98878.44;;;9.64;86.58
9717;BME280;4897;43.570;27.832;2023-02-01T12:44:11;98873.16;;;10.24;77.62
9717;BME280;4897;43.570;27.832;2023-02-01T12:46:41;98879.63;;;10.01;73.65
9717;BME280;4897;43.570;27.832;2023-02-01T12:49:15;98895.97;;;9.05;85.96
9717;BME280;4897;43.570;27.832;2023-02-01T12:51:46;98892.94;;;8.66;86.41
9717;BME280;4897;43.570;27.832;2023-02-01T12:54:21;98890.50;;;7.75;100.00
9717;BME280;4897;43.570;27.832;2023-02-01T12:56:52;98877.31;;;7.62;100.00
9717;BME280;4897;43.570;27.832;2023-02-01T12:59:25;98873.78;;;7.51;100.00
9717;BME280;4897;43.570;27.832;2023-02-01T13:01:56;98875.72;;;7.49;100.00
9717;BME280;4897;43.570;27.832;2023-02-01T13:04:28;98871.75;;;7.54;100.00
9717;BME280;4897;43.570;27.832;2023-02-01T13:07:01;98882.81;;;7.37;100.00
9717;BME280;4897;43.570;27.832;2023-02-01T13:09:37;98884.69;;;6.89;100.00
9717;BME280;4897;43.570;27.832;2023-02-01T13:12:11;98891.16;;;8.00;100.00
9717;BME280;4897;43.570;27.832;2023-02-01T13:14:42;98872.13;;;9.03;100.00
9717;BME280;4897;43.570;27.832;2023-02-01T13:17:14;98863.38;;;9.84;100.00
9717;BME280;4897;43.570;27.832;2023-02-01T13:19:45;98878.66;;;10.02;88.03
9717;BME280;4897;43.570;27.832;2023-02-01T13:22:19;98862.56;;;10.53;84.83
9717;BME280;4897;43.570;27.832;2023-02-01T13:24:51;98858.84;;;11.13;76.31
9717;BME280;4897;43.570;27.832;2023-02-01T13:27:19;98857.72;;;11.06;73.69
9717;BME280;4897;43.570;27.832;2023-02-01T13:29:52;98863.78;;;11.37;74.61
9717;BME280;4897;43.570;27.832;2023-02-01T13:32:41;98858.38;;;11.84;67.82
9717;BME280;4897;43.570;27.832;2023-02-01T13:35:28;98863.19;;;11.71;67.83
9717;BME280;4897;43.570;27.832;2023-02-01T13:38:25;98874.16;;;11.78;71.92
9717;BME280;4897;43.570;27.832;2023-02-01T13:41:07;98873.03;;;11.61;72.73
9717;BME280;4897;43.570;27.832;2023-02-01T13:43:41;98875.84;;;10.74;74.54
9717;BME280;4897;43.570;27.832;2023-02-01T13:46:11;98890.28;;;9.92;88.58
9717;BME280;4897;43.570;27.832;2023-02-01T13:48:45;98879.38;;;10.74;82.21